createdAt,value
2022-09-13T00:04:53.524Z,6.90
2022-09-13T00:09:55.150Z,5.00
2022-09-13T00:14:56.863Z,4.30
2022-09-13T00:19:58.498Z,4.75
2022-09-13T00:25:00.324Z,4.47
2022-09-13T00:30:02.570Z,4.40
2022-09-13T00:35:05.972Z,3.88
2022-09-13T00:40:08.087Z,5.60
2022-09-13T00:45:12.786Z,5.80
2022-09-13T00:50:40.386Z,6.30
2022-09-13T01:00:55.454Z,6.15
2022-09-13T01:06:04.666Z,11.43
2022-09-13T01:11:12.087Z,5.28
2022-09-13T01:16:13.720Z,6.22
2022-09-13T01:22:01.246Z,7.40
2022-09-13T01:27:23.690Z,7.50
2022-09-13T01:32:41.114Z,8.25
2022-09-13T01:43:12.643Z,5.40
2022-09-13T01:48:20.421Z,7.97
2022-09-13T01:53:40.085Z,6.50
2022-09-13T01:59:05.336Z,6.20
2022-09-13T02:04:13.191Z,7.38
2022-09-13T02:09:21.489Z,8.82
2022-09-13T02:14:29.187Z,4.82
2022-09-13T02:19:35.570Z,10.63
2022-09-13T02:24:45.184Z,9.60
2022-09-13T02:29:50.512Z,5.53
2022-09-13T02:35:25.344Z,9.98
2022-09-13T02:40:30.323Z,7.75
2022-09-13T02:45:41.362Z,7.57
2022-09-13T02:51:04.483Z,8.65
2022-09-13T02:56:27.394Z,5.10
2022-09-13T03:01:29.484Z,4.93
2022-09-13T03:06:31.212Z,10.25
2022-09-13T03:11:56.713Z,3.90
2022-09-13T03:17:16.248Z,7.57
2022-09-13T03:22:39.122Z,5.80
2022-09-13T03:28:01.057Z,4.68
2022-09-13T03:33:35.218Z,9.20
2022-09-13T03:38:53.914Z,7.32
2022-09-13T03:44:02.859Z,10.27
2022-09-13T03:49:09.080Z,5.05
2022-09-13T03:54:19.076Z,7.70
2022-09-13T03:59:20.677Z,8.35
2022-09-13T04:04:22.777Z,9.68
2022-09-13T04:09:24.437Z,7.53
2022-09-13T04:14:28.864Z,11.77
2022-09-13T04:19:31.389Z,11.45
2022-09-13T04:24:33.147Z,5.30
2022-09-13T04:29:34.770Z,5.60
2022-09-13T04:34:36.962Z,9.98
2022-09-13T04:39:38.768Z,8.32
2022-09-13T04:44:40.359Z,10.25
2022-09-13T04:49:42.126Z,11.30
2022-09-13T04:54:43.954Z,9.02
2022-09-13T04:59:45.573Z,7.70
2022-09-13T05:04:47.301Z,7.60
2022-09-13T05:09:48.970Z,7.53
2022-09-13T05:14:50.662Z,7.65
2022-09-13T05:19:52.277Z,7.05
2022-09-13T05:24:53.873Z,10.07
2022-09-13T05:29:55.481Z,8.75
2022-09-13T05:34:57.119Z,9.15
2022-09-13T05:40:13.950Z,7.55
2022-09-13T05:45:15.750Z,11.20
2022-09-13T05:50:33.142Z,7.22
2022-09-13T05:55:39.344Z,7.90
2022-09-13T06:00:40.958Z,8.98
2022-09-13T06:05:42.553Z,9.32
2022-09-13T06:10:44.166Z,9.98
2022-09-13T06:15:45.749Z,9.93
2022-09-13T06:20:47.801Z,10.48
2022-09-13T06:25:49.396Z,9.20
2022-09-13T06:30:51.261Z,9.35
2022-09-13T06:35:52.939Z,12.05
2022-09-13T06:41:07.685Z,7.68
2022-09-13T06:46:14.603Z,10.18
2022-09-13T06:51:18.278Z,11.57
2022-09-13T06:56:32.434Z,11.68
2022-09-13T07:01:36.872Z,8.90
2022-09-13T07:06:41.073Z,10.90
2022-09-13T07:11:43.154Z,9.85
2022-09-13T07:16:46.309Z,10.25
2022-09-13T07:21:49.752Z,9.98
2022-09-13T07:26:51.733Z,13.32
2022-09-13T07:31:55.148Z,10.20
2022-09-13T07:36:56.771Z,8.32
2022-09-13T07:41:58.487Z,11.73
2022-09-13T07:47:00.501Z,11.50
2022-09-13T07:52:02.252Z,13.73
2022-09-13T07:57:04.053Z,7.40
2022-09-13T08:02:05.913Z,9.50
2022-09-13T08:07:07.676Z,9.95
2022-09-13T08:12:09.370Z,8.43
2022-09-13T08:17:10.949Z,9.57
2022-09-13T08:22:12.565Z,9.63
2022-09-13T08:27:14.205Z,9.55
2022-09-13T08:32:15.794Z,15.93
2022-09-13T08:37:17.388Z,11.32
2022-09-13T08:42:50.004Z,13.40
2022-09-13T08:48:03.685Z,10.80
2022-09-13T08:53:24.207Z,10.85
2022-09-13T08:58:46.947Z,7.03
2022-09-13T09:03:59.185Z,9.30
2022-09-13T09:09:00.777Z,8.70
2022-09-13T09:14:17.326Z,11.90
2022-09-13T09:19:34.229Z,7.88
2022-09-13T09:29:40.172Z,9.02
2022-09-13T09:35:15.646Z,10.27
2022-09-13T09:40:17.983Z,8.95
2022-09-13T09:45:30.748Z,10.38
2022-09-13T09:50:38.315Z,9.18
2022-09-13T09:55:45.782Z,17.88
2022-09-13T10:00:59.083Z,10.65
2022-09-13T10:06:11.250Z,19.42
2022-09-13T10:11:12.882Z,13.25
2022-09-13T10:16:27.742Z,19.08
2022-09-13T10:21:29.892Z,9.85
2022-09-13T10:26:33.464Z,15.40
2022-09-13T10:31:38.615Z,13.43
2022-09-13T10:37:06.169Z,14.30
2022-09-13T10:42:10.094Z,14.13
2022-09-13T10:47:20.007Z,12.68
2022-09-13T10:52:34.270Z,10.40
2022-09-13T10:57:37.354Z,9.65
2022-09-13T11:03:16.227Z,6.97
2022-09-13T11:08:29.443Z,10.98
2022-09-13T11:13:43.040Z,9.90
2022-09-13T11:19:00.809Z,10.10
2022-09-13T11:24:23.785Z,6.87
2022-09-13T11:29:37.087Z,8.25
2022-09-13T11:34:56.354Z,11.85
2022-09-13T11:40:19.919Z,6.45
2022-09-13T11:45:25.913Z,11.38
2022-09-13T11:50:38.055Z,6.70
2022-09-13T11:55:50.816Z,6.97
2022-09-13T12:01:07.068Z,3.90
2022-09-13T12:06:28.949Z,8.75
2022-09-13T12:11:43.307Z,7.40
2022-09-13T12:16:52.597Z,6.20
2022-09-13T12:21:57.687Z,4.80
2022-09-13T12:27:28.259Z,6.32
2022-09-13T12:32:31.310Z,4.32
2022-09-13T12:37:57.226Z,5.88
2022-09-13T12:43:33.961Z,4.72
2022-09-13T12:49:19.488Z,10.40
2022-09-13T12:54:36.243Z,6.80
2022-09-13T12:59:52.221Z,9.75
2022-09-13T13:04:59.731Z,4.03
2022-09-13T13:10:03.076Z,4.80
2022-09-13T13:15:30.739Z,4.30
2022-09-13T13:21:22.273Z,6.25
2022-09-13T13:26:43.376Z,4.03
2022-09-13T13:32:04.582Z,4.55
2022-09-13T13:37:28.327Z,2.85
2022-09-13T13:42:35.216Z,3.85
2022-09-13T13:47:39.548Z,3.38
2022-09-13T13:52:47.034Z,8.73
2022-09-13T13:58:02.164Z,8.27
2022-09-13T14:03:23.291Z,5.03
2022-09-13T14:14:24.245Z,2.27
2022-09-13T14:19:40.593Z,2.28
2022-09-13T14:24:46.431Z,2.83
2022-09-13T14:29:52.066Z,4.75
2022-09-13T14:35:00.273Z,2.20
2022-09-13T14:40:28.189Z,2.83
2022-09-13T14:45:35.958Z,6.47
2022-09-13T14:50:42.945Z,5.47
2022-09-13T14:55:52.884Z,2.50
2022-09-13T15:01:08.558Z,4.20
2022-09-13T15:06:21.270Z,4.40
2022-09-13T15:11:33.647Z,5.15
2022-09-13T15:16:35.333Z,5.25
2022-09-13T15:21:37.319Z,4.57
2022-09-13T15:26:38.969Z,4.72
2022-09-13T15:31:40.619Z,7.00
2022-09-13T15:36:42.254Z,9.40
2022-09-13T15:42:00.738Z,6.95
2022-09-13T15:47:07.947Z,10.25
2022-09-13T15:52:10.673Z,9.82
2022-09-13T15:57:22.823Z,7.72
2022-09-13T16:02:31.937Z,4.22
2022-09-13T16:07:33.669Z,7.43
2022-09-13T16:12:35.351Z,4.68
2022-09-13T16:17:36.964Z,5.57
2022-09-13T16:22:38.571Z,5.30
2022-09-13T16:27:41.367Z,6.05
2022-09-13T16:32:43.608Z,6.97
2022-09-13T16:37:45.254Z,6.40
2022-09-13T16:42:47.289Z,6.43
2022-09-13T16:47:49.086Z,7.53
2022-09-13T16:52:50.779Z,7.97
2022-09-13T16:57:52.527Z,6.47
2022-09-13T17:02:55.949Z,7.97
2022-09-13T17:07:57.651Z,9.52
2022-09-13T17:12:59.475Z,10.25
2022-09-13T17:18:01.339Z,11.65
2022-09-13T17:23:03.007Z,6.05
2022-09-13T17:28:04.688Z,11.25
2022-09-13T17:33:06.833Z,10.38
2022-09-13T17:38:08.394Z,10.45
2022-09-13T17:43:09.983Z,9.57
2022-09-13T17:48:12.347Z,8.10
2022-09-13T17:53:14.163Z,13.40
2022-09-13T17:58:16.429Z,10.77
2022-09-13T18:03:18.156Z,6.72
2022-09-13T18:08:19.802Z,11.55
2022-09-13T18:13:22.072Z,11.52
2022-09-13T18:18:24.168Z,11.45
2022-09-13T18:23:25.813Z,11.98
2022-09-13T18:28:28.198Z,14.43
2022-09-13T18:33:29.889Z,11.10
2022-09-13T18:38:35.173Z,17.70
2022-09-13T18:43:39.507Z,9.60
2022-09-13T18:48:43.649Z,12.20
2022-09-13T18:53:45.984Z,18.17
2022-09-13T18:58:47.980Z,16.73
2022-09-13T19:04:11.592Z,17.83
2022-09-13T19:09:16.698Z,19.77
2022-09-13T19:14:28.567Z,15.73
2022-09-13T19:19:31.179Z,14.13
2022-09-13T19:24:33.742Z,14.18
2022-09-13T19:29:35.941Z,14.80
2022-09-13T19:34:37.790Z,16.13
2022-09-13T19:39:39.614Z,23.90
2022-09-13T19:44:41.417Z,18.08
2022-09-13T19:49:43.248Z,14.60
2022-09-13T19:54:44.879Z,16.30
2022-09-13T19:59:46.522Z,11.93
2022-09-13T20:04:48.685Z,17.35
2022-09-13T20:09:50.930Z,15.10
2022-09-13T20:14:52.601Z,17.67
2022-09-13T20:19:54.364Z,18.50
2022-09-13T20:24:57.672Z,17.70
2022-09-13T20:29:59.693Z,14.50
2022-09-13T20:35:01.360Z,17.40
2022-09-13T20:40:03.657Z,15.02
2022-09-13T20:45:06.464Z,17.10
2022-09-13T20:50:08.395Z,15.88
2022-09-13T20:55:10.198Z,18.02
2022-09-13T21:00:12.681Z,19.23
2022-09-13T21:05:14.380Z,20.05
2022-09-13T21:10:16.230Z,15.75
2022-09-13T21:15:19.423Z,17.73
2022-09-13T21:20:21.156Z,18.85
2022-09-13T21:25:22.969Z,16.30
2022-09-13T21:30:24.794Z,21.02
2022-09-13T21:35:27.111Z,17.90
2022-09-13T21:40:28.816Z,18.52
2022-09-13T21:45:31.378Z,21.15
2022-09-13T21:50:33.172Z,17.70
2022-09-13T21:55:35.853Z,16.38
2022-09-13T22:06:01.543Z,18.58
2022-09-13T22:11:05.851Z,17.40
2022-09-13T22:16:09.528Z,19.63
2022-09-13T22:21:15.686Z,24.92
2022-09-13T22:26:20.522Z,21.53
2022-09-13T22:31:25.379Z,22.35
2022-09-13T22:36:29.278Z,19.73
2022-09-13T22:41:33.496Z,22.02
2022-09-13T22:46:37.910Z,24.33
2022-09-13T22:51:45.084Z,27.63
2022-09-13T22:56:47.225Z,28.50
2022-09-13T23:01:49.473Z,29.50
2022-09-13T23:06:51.146Z,22.35
2022-09-13T23:11:52.771Z,23.40
2022-09-13T23:16:54.949Z,26.25
2022-09-13T23:21:56.657Z,25.30
2022-09-13T23:26:58.385Z,25.02
2022-09-13T23:32:00.007Z,23.98
2022-09-13T23:37:01.698Z,21.30
2022-09-13T23:42:04.261Z,25.23
2022-09-13T23:47:06.107Z,27.20
2022-09-13T23:52:07.690Z,25.67
2022-09-13T23:57:09.464Z,27.15
